sensor_id;sensor_type;location;lat;lon;timestamp;P1;durP1;ratioP1;P2;durP2;ratioP2
25187;SDS011;13141;50.414;8.050;2023-04-30T00:00:19;0.10;;;0.10;;
25187;SDS011;13141;50.414;8.050;2023-04-30T00:02:44;0.10;;;0.10;;
25187;SDS011;13141;50.414;8.050;2023-04-30T00:05:10;0.10;;;0.10;;
25187;SDS011;13141;50.414;8.050;2023-04-30T00:07:36;0.10;;;0.10;;
25187;SDS011;13141;50.414;8.050;2023-04-30T00:10:01;0.10;;;0.10;;
25187;SDS011;13141;50.414;8.050;2023-04-30T00:12:29;0.10;;;0.10;;
25187;SDS011;13141;50.414;8.050;2023-04-30T00:14:54;0.10;;;0.10;;
25187;SDS011;13141;50.414;8.050;2023-04-30T00:17:20;0.17;;;0.17;;
25187;SDS011;13141;50.414;8.050;2023-04-30T00:19:46;0.10;;;0.10;;
25187;SDS011;13141;50.414;8.050;2023-04-30T00:22:11;0.13;;;0.13;;
25187;SDS011;13141;50.414;8.050;2023-04-30T00:24:37;0.10;;;0.10;;
25187;SDS011;13141;50.414;8.050;2023-04-30T00:27:03;0.10;;;0.10;;
25187;SDS011;13141;50.414;8.050;2023-04-30T00:29:30;0.10;;;0.10;;
25187;SDS011;13141;50.414;8.050;2023-04-30T00:31:55;0.10;;;0.10;;
25187;SDS011;13141;50.414;8.050;2023-04-30T00:34:21;0.10;;;0.10;;
25187;SDS011;13141;50.414;8.050;2023-04-30T00:36:47;0.10;;;0.10;;
25187;SDS011;13141;50.414;8.050;2023-04-30T00:39:12;0.20;;;0.20;;
25187;SDS011;13141;50.414;8.050;2023-04-30T00:41:38;0.10;;;0.10;;
25187;SDS011;13141;50.414;8.050;2023-04-30T00:44:05;0.10;;;0.10;;
25187;SDS011;13141;50.414;8.050;2023-04-30T00:46:32;0.10;;;0.10;;
25187;SDS011;13141;50.414;8.050;2023-04-30T00:48:57;0.10;;;0.10;;
25187;SDS011;13141;50.414;8.050;2023-04-30T00:51:23;0.10;;;0.10;;
25187;SDS011;13141;50.414;8.050;2023-04-30T00:53:50;0.10;;;0.10;;
25187;SDS011;13141;50.414;8.050;2023-04-30T00:56:19;0.10;;;0.10;;
25187;SDS011;13141;50.414;8.050;2023-04-30T00:58:45;0.20;;;0.20;;
25187;SDS011;13141;50.414;8.050;2023-04-30T01:01:11;0.10;;;0.10;;
25187;SDS011;13141;50.414;8.050;2023-04-30T01:03:38;0.20;;;0.20;;
25187;SDS011;13141;50.414;8.050;2023-04-30T01:06:05;0.10;;;0.10;;
25187;SDS011;13141;50.414;8.050;2023-04-30T01:08:31;0.10;;;0.10;;
25187;SDS011;13141;50.414;8.050;2023-04-30T01:11:00;0.10;;;0.10;;
25187;SDS011;13141;50.414;8.050;2023-04-30T01:13:39;0.10;;;0.10;;
25187;SDS011;13141;50.414;8.050;2023-04-30T01:16:13;0.10;;;0.10;;
25187;SDS011;13141;50.414;8.050;2023-04-30T01:18:45;0.10;;;0.10;;
25187;SDS011;13141;50.414;8.050;2023-04-30T01:21:15;0.20;;;0.20;;
25187;SDS011;13141;50.414;8.050;2023-04-30T01:23:47;0.10;;;0.10;;
25187;SDS011;13141;50.414;8.050;2023-04-30T01:26:41;0.10;;;0.10;;
25187;SDS011;13141;50.414;8.050;2023-04-30T01:29:18;0.13;;;0.13;;
25187;SDS011;13141;50.414;8.050;2023-04-30T01:31:46;0.10;;;0.10;;
25187;SDS011;13141;50.414;8.050;2023-04-30T01:34:11;0.10;;;0.10;;
25187;SDS011;13141;50.414;8.050;2023-04-30T01:36:41;0.10;;;0.10;;
25187;SDS011;13141;50.414;8.050;2023-04-30T01:39:18;0.10;;;0.10;;
25187;SDS011;13141;50.414;8.050;2023-04-30T01:41:53;0.20;;;0.20;;
25187;SDS011;13141;50.414;8.050;2023-04-30T01:44:37;0.17;;;0.17;;
25187;SDS011;13141;50.414;8.050;2023-04-30T01:47:11;0.10;;;0.10;;
25187;SDS011;13141;50.414;8.050;2023-04-30T01:49:49;0.10;;;0.10;;
25187;SDS011;13141;50.414;8.050;2023-04-30T01:52:22;0.10;;;0.10;;
25187;SDS011;13141;50.414;8.050;2023-04-30T01:54:56;0.10;;;0.10;;
25187;SDS011;13141;50.414;8.050;2023-04-30T01:57:26;0.10;;;0.10;;
25187;SDS011;13141;50.414;8.050;2023-04-30T01:59:57;0.10;;;0.10;;
25187;SDS011;13141;50.414;8.050;2023-04-30T02:02:23;0.10;;;0.10;;
25187;SDS011;13141;50.414;8.050;2023-04-30T02:04:49;0.10;;;0.10;;
25187;SDS011;13141;50.414;8.050;2023-04-30T02:07:16;0.10;;;0.10;;
25187;SDS011;13141;50.414;8.050;2023-04-30T02:09:51;0.20;;;0.20;;
25187;SDS011;13141;50.414;8.050;2023-04-30T02:12:17;0.10;;;0.10;;
25187;SDS011;13141;50.414;8.050;2023-04-30T02:14:42;0.10;;;0.10;;
25187;SDS011;13141;50.414;8.050;2023-04-30T02:17:10;0.10;;;0.10;;
25187;SDS011;13141;50.414;8.050;2023-04-30T02:19:35;0.10;;;0.10;;
25187;SDS011;13141;50.414;8.050;2023-04-30T02:22:01;0.10;;;0.10;;
25187;SDS011;13141;50.414;8.050;2023-04-30T02:24:26;0.10;;;0.10;;
25187;SDS011;13141;50.414;8.050;2023-04-30T02:26:52;0.10;;;0.10;;
25187;SDS011;13141;50.414;8.050;2023-04-30T02:29:18;0.10;;;0.10;;
25187;SDS011;13141;50.414;8.050;2023-04-30T02:31:44;0.10;;;0.10;;
25187;SDS011;13141;50.414;8.050;2023-04-30T02:34:11;0.10;;;0.10;;
25187;SDS011;13141;50.414;8.050;2023-04-30T02:36:36;0.10;;;0.10;;
25187;SDS011;13141;50.414;8.050;2023-04-30T02:39:02;0.10;;;0.10;;
25187;SDS011;13141;50.414;8.050;2023-04-30T02:41:27;0.10;;;0.10;;
25187;SDS011;13141;50.414;8.050;2023-04-30T02:43:53;0.10;;;0.10;;
25187;SDS011;13141;50.414;8.050;2023-04-30T02:46:19;0.20;;;0.20;;
25187;SDS011;13141;50.414;8.050;2023-04-30T02:48:44;0.10;;;0.10;;
25187;SDS011;13141;50.414;8.050;2023-04-30T02:51:11;0.10;;;0.10;;
25187;SDS011;13141;50.414;8.050;2023-04-30T02:53:37;0.10;;;0.10;;
25187;SDS011;13141;50.414;8.050;2023-04-30T02:56:03;0.10;;;0.10;;
25187;SDS011;13141;50.414;8.050;2023-04-30T02:58:29;0.10;;;0.10;;
25187;SDS011;13141;50.414;8.050;2023-04-30T03:00:55;0.20;;;0.20;;
25187;SDS011;13141;50.414;8.050;2023-04-30T03:03:20;0.10;;;0.10;;
25187;SDS011;13141;50.414;8.050;2023-04-30T03:05:46;0.20;;;0.20;;
25187;SDS011;13141;50.414;8.050;2023-04-30T03:08:13;0.10;;;0.10;;
25187;SDS011;13141;50.414;8.050;2023-04-30T03:10:39;0.13;;;0.13;;
25187;SDS011;13141;50.414;8.050;2023-04-30T03:13:04;0.13;;;0.13;;
25187;SDS011;13141;50.414;8.050;2023-04-30T03:15:31;0.10;;;0.10;;
25187;SDS011;13141;50.414;8.050;2023-04-30T03:17:56;0.10;;;0.10;;
25187;SDS011;13141;50.414;8.050;2023-04-30T03:20:22;0.10;;;0.10;;
25187;SDS011;13141;50.414;8.050;2023-04-30T03:22:48;0.10;;;0.10;;
25187;SDS011;13141;50.414;8.050;2023-04-30T03:25:19;0.10;;;0.10;;
25187;SDS011;13141;50.414;8.050;2023-04-30T03:27:45;0.10;;;0.10;;
25187;SDS011;13141;50.414;8.050;2023-04-30T03:30:10;0.10;;;0.10;;
25187;SDS011;13141;50.414;8.050;2023-04-30T03:32:36;0.10;;;0.10;;
25187;SDS011;13141;50.414;8.050;2023-04-30T03:35:01;0.10;;;0.10;;
25187;SDS011;13141;50.414;8.050;2023-04-30T03:37:27;0.10;;;0.10;;
25187;SDS011;13141;50.414;8.050;2023-04-30T03:39:53;0.10;;;0.10;;
25187;SDS011;13141;50.414;8.050;2023-04-30T03:42:20;0.10;;;0.10;;
25187;SDS011;13141;50.414;8.050;2023-04-30T03:44:45;0.20;;;0.20;;
25187;SDS011;13141;50.414;8.050;2023-04-30T03:47:11;0.10;;;0.10;;
25187;SDS011;13141;50.414;8.050;2023-04-30T03:49:37;0.10;;;0.10;;
25187;SDS011;13141;50.414;8.050;2023-04-30T03:52:02;0.10;;;0.10;;
25187;SDS011;13141;50.414;8.050;2023-04-30T03:54:28;0.10;;;0.10;;
25187;SDS011;13141;50.414;8.050;2023-04-30T03:56:54;0.10;;;0.10;;
25187;SDS011;13141;50.414;8.050;2023-04-30T03:59:21;0.10;;;0.10;;
25187;SDS011;13141;50.414;8.050;2023-04-30T04:01:47;0.10;;;0.10;;
25187;SDS011;13141;50.414;8.050;2023-04-30T04:04:13;0.10;;;0.10;;
25187;SDS011;13141;50.414;8.050;2023-04-30T04:06:38;0.10;;;0.10;;
25187;SDS011;13141;50.414;8.050;2023-04-30T04:09:04;0.13;;;0.13;;
25187;SDS011;13141;50.414;8.050;2023-04-30T04:11:30;0.10;;;0.10;;
25187;SDS011;13141;50.414;8.050;2023-04-30T04:13:55;0.10;;;0.10;;
25187;SDS011;13141;50.414;8.050;2023-04-30T04:16:22;0.20;;;0.20;;
25187;SDS011;13141;50.414;8.050;2023-04-30T04:18:48;0.15;;;0.15;;
25187;SDS011;13141;50.414;8.050;2023-04-30T04:21:15;0.10;;;0.10;;
25187;SDS011;13141;50.414;8.050;2023-04-30T04:23:40;0.10;;;0.10;;
25187;SDS011;13141;50.414;8.050;2023-04-30T04:26:06;0.10;;;0.10;;
25187;SDS011;13141;50.414;8.050;2023-04-30T04:28:31;0.10;;;0.10;;
25187;SDS011;13141;50.414;8.050;2023-04-30T04:30:57;0.10;;;0.10;;
25187;SDS011;13141;50.414;8.050;2023-04-30T04:33:24;0.10;;;0.10;;
25187;SDS011;13141;50.414;8.050;2023-04-30T04:35:50;0.10;;;0.10;;
25187;SDS011;13141;50.414;8.050;2023-04-30T04:38:16;0.10;;;0.10;;
25187;SDS011;13141;50.414;8.050;2023-04-30T04:40:49;0.10;;;0.10;;
25187;SDS011;13141;50.414;8.050;2023-04-30T04:43:15;0.20;;;0.20;;
25187;SDS011;13141;50.414;8.050;2023-04-30T04:45:41;0.10;;;0.10;;
25187;SDS011;13141;50.414;8.050;2023-04-30T04:48:07;0.13;;;0.13;;
25187;SDS011;13141;50.414;8.050;2023-04-30T04:50:34;0.10;;;0.10;;
25187;SDS011;13141;50.414;8.050;2023-04-30T04:52:59;0.10;;;0.10;;
25187;SDS011;13141;50.414;8.050;2023-04-30T04:55:25;0.10;;;0.10;;
25187;SDS011;13141;50.414;8.050;2023-04-30T04:57:51;0.10;;;0.10;;
25187;SDS011;13141;50.414;8.050;2023-04-30T05:00:17;0.10;;;0.10;;
25187;SDS011;13141;50.414;8.050;2023-04-30T05:02:42;0.10;;;0.10;;
25187;SDS011;13141;50.414;8.050;2023-04-30T05:05:08;0.10;;;0.10;;
25187;SDS011;13141;50.414;8.050;2023-04-30T05:07:35;0.10;;;0.10;;
25187;SDS011;13141;50.414;8.050;2023-04-30T05:10:01;0.20;;;0.20;;
25187;SDS011;13141;50.414;8.050;2023-04-30T05:12:26;0.10;;;0.10;;
25187;SDS011;13141;50.414;8.050;2023-04-30T05:14:52;0.10;;;0.10;;
25187;SDS011;13141;50.414;8.050;2023-04-30T05:17:18;0.10;;;0.10;;
25187;SDS011;13141;50.414;8.050;2023-04-30T05:19:43;0.10;;;0.10;;
25187;SDS011;13141;50.414;8.050;2023-04-30T05:22:09;0.10;;;0.10;;
25187;SDS011;13141;50.414;8.050;2023-04-30T05:24:36;0.20;;;0.20;;
25187;SDS011;13141;50.414;8.050;2023-04-30T05:27:02;0.15;;;0.15;;
25187;SDS011;13141;50.414;8.050;2023-04-30T05:29:27;0.10;;;0.10;;
25187;SDS011;13141;50.414;8.050;2023-04-30T05:31:53;0.10;;;0.10;;
25187;SDS011;13141;50.414;8.050;2023-04-30T05:34:19;0.10;;;0.10;;
25187;SDS011;13141;50.414;8.050;2023-04-30T05:36:44;0.10;;;0.10;;
25187;SDS011;13141;50.414;8.050;2023-04-30T05:39:10;0.10;;;0.10;;
25187;SDS011;13141;50.414;8.050;2023-04-30T05:41:37;0.10;;;0.10;;
25187;SDS011;13141;50.414;8.050;2023-04-30T05:44:03;0.20;;;0.20;;
25187;SDS011;13141;50.414;8.050;2023-04-30T05:46:29;0.10;;;0.10;;
25187;SDS011;13141;50.414;8.050;2023-04-30T05:48:55;0.10;;;0.10;;
25187;SDS011;13141;50.414;8.050;2023-04-30T05:51:20;0.10;;;0.10;;
25187;SDS011;13141;50.414;8.050;2023-04-30T05:53:46;0.10;;;0.10;;
25187;SDS011;13141;50.414;8.050;2023-04-30T05:56:11;0.10;;;0.10;;
25187;SDS011;13141;50.414;8.050;2023-04-30T05:58:39;0.10;;;0.10;;
25187;SDS011;13141;50.414;8.050;2023-04-30T06:01:04;0.10;;;0.10;;
25187;SDS011;13141;50.414;8.050;2023-04-30T06:03:30;0.10;;;0.10;;
25187;SDS011;13141;50.414;8.050;2023-04-30T06:05:56;0.10;;;0.10;;
25187;SDS011;13141;50.414;8.050;2023-04-30T06:08:22;0.10;;;0.10;;
25187;SDS011;13141;50.414;8.050;2023-04-30T06:10:48;0.10;;;0.10;;
25187;SDS011;13141;50.414;8.050;2023-04-30T06:13:15;0.10;;;0.10;;
25187;SDS011;13141;50.414;8.050;2023-04-30T06:15:42;0.10;;;0.10;;
25187;SDS011;13141;50.414;8.050;2023-04-30T06:18:07;0.10;;;0.10;;
25187;SDS011;13141;50.414;8.050;2023-04-30T06:20:33;0.10;;;0.10;;
25187;SDS011;13141;50.414;8.050;2023-04-30T06:23:00;0.10;;;0.10;;
25187;SDS011;13141;50.414;8.050;2023-04-30T06:25:25;0.10;;;0.10;;
25187;SDS011;13141;50.414;8.050;2023-04-30T06:27:51;0.10;;;0.10;;
25187;SDS011;13141;50.414;8.050;2023-04-30T06:30:17;0.17;;;0.17;;
25187;SDS011;13141;50.414;8.050;2023-04-30T06:32:44;0.10;;;0.10;;
25187;SDS011;13141;50.414;8.050;2023-04-30T06:35:09;0.10;;;0.10;;
25187;SDS011;13141;50.414;8.050;2023-04-30T06:37:35;0.10;;;0.10;;
25187;SDS011;13141;50.414;8.050;2023-04-30T06:40:01;0.13;;;0.13;;
25187;SDS011;13141;50.414;8.050;2023-04-30T06:42:26;0.20;;;0.20;;
25187;SDS011;13141;50.414;8.050;2023-04-30T06:44:52;0.10;;;0.10;;
25187;SDS011;13141;50.414;8.050;2023-04-30T06:47:17;0.10;;;0.10;;
25187;SDS011;13141;50.414;8.050;2023-04-30T06:49:45;0.10;;;0.10;;
25187;SDS011;13141;50.414;8.050;2023-04-30T06:52:10;0.20;;;0.20;;
25187;SDS011;13141;50.414;8.050;2023-04-30T06:54:36;0.10;;;0.10;;
25187;SDS011;13141;50.414;8.050;2023-04-30T06:57:01;0.10;;;0.10;;
25187;SDS011;13141;50.414;8.050;2023-04-30T06:59:28;0.10;;;0.10;;
25187;SDS011;13141;50.414;8.050;2023-04-30T07:01:53;0.20;;;0.20;;
25187;SDS011;13141;50.414;8.050;2023-04-30T07:04:19;0.13;;;0.13;;
25187;SDS011;13141;50.414;8.050;2023-04-30T07:06:46;0.10;;;0.10;;
25187;SDS011;13141;50.414;8.050;2023-04-30T07:09:12;0.10;;;0.10;;
25187;SDS011;13141;50.414;8.050;2023-04-30T07:11:38;0.10;;;0.10;;
25187;SDS011;13141;50.414;8.050;2023-04-30T07:14:03;0.20;;;0.20;;
25187;SDS011;13141;50.414;8.050;2023-04-30T07:16:29;0.10;;;0.10;;
25187;SDS011;13141;50.414;8.050;2023-04-30T07:18:56;0.20;;;0.20;;
25187;SDS011;13141;50.414;8.050;2023-04-30T07:21:22;0.10;;;0.10;;
25187;SDS011;13141;50.414;8.050;2023-04-30T07:23:49;0.10;;;0.10;;
25187;SDS011;13141;50.414;8.050;2023-04-30T07:26:14;0.10;;;0.10;;
25187;SDS011;13141;50.414;8.050;2023-04-30T07:28:40;0.10;;;0.10;;
25187;SDS011;13141;50.414;8.050;2023-04-30T07:31:06;0.10;;;0.10;;
25187;SDS011;13141;50.414;8.050;2023-04-30T07:33:32;0.10;;;0.10;;
25187;SDS011;13141;50.414;8.050;2023-04-30T07:35:57;0.10;;;0.10;;
25187;SDS011;13141;50.414;8.050;2023-04-30T07:38:23;0.10;;;0.10;;
25187;SDS011;13141;50.414;8.050;2023-04-30T07:40:50;0.10;;;0.10;;
25187;SDS011;13141;50.414;8.050;2023-04-30T07:43:16;0.10;;;0.10;;
25187;SDS011;13141;50.414;8.050;2023-04-30T07:45:41;0.10;;;0.10;;
25187;SDS011;13141;50.414;8.050;2023-04-30T07:48:08;0.10;;;0.10;;
25187;SDS011;13141;50.414;8.050;2023-04-30T07:50:34;0.10;;;0.10;;
25187;SDS011;13141;50.414;8.050;2023-04-30T07:53:00;0.10;;;0.10;;
25187;SDS011;13141;50.414;8.050;2023-04-30T07:55:26;0.10;;;0.10;;
25187;SDS011;13141;50.414;8.050;2023-04-30T07:57:53;0.10;;;0.10;;
25187;SDS011;13141;50.414;8.050;2023-04-30T08:00:18;0.10;;;0.10;;
25187;SDS011;13141;50.414;8.050;2023-04-30T08:02:44;0.10;;;0.10;;
25187;SDS011;13141;50.414;8.050;2023-04-30T08:05:10;0.10;;;0.10;;
25187;SDS011;13141;50.414;8.050;2023-04-30T08:07:36;0.10;;;0.10;;
25187;SDS011;13141;50.414;8.050;2023-04-30T08:10:01;0.20;;;0.20;;
25187;SDS011;13141;50.414;8.050;2023-04-30T08:12:27;0.10;;;0.10;;
25187;SDS011;13141;50.414;8.050;2023-04-30T08:14:59;0.10;;;0.10;;
25187;SDS011;13141;50.414;8.050;2023-04-30T08:17:27;0.10;;;0.10;;
25187;SDS011;13141;50.414;8.050;2023-04-30T08:19:53;0.10;;;0.10;;
25187;SDS011;13141;50.414;8.050;2023-04-30T08:22:19;0.10;;;0.10;;
25187;SDS011;13141;50.414;8.050;2023-04-30T08:24:44;0.10;;;0.10;;
25187;SDS011;13141;50.414;8.050;2023-04-30T08:27:10;0.10;;;0.10;;
25187;SDS011;13141;50.414;8.050;2023-04-30T08:29:36;0.10;;;0.10;;
25187;SDS011;13141;50.414;8.050;2023-04-30T08:32:03;0.10;;;0.10;;
25187;SDS011;13141;50.414;8.050;2023-04-30T08:34:29;0.10;;;0.10;;
25187;SDS011;13141;50.414;8.050;2023-04-30T08:36:55;0.17;;;0.17;;
25187;SDS011;13141;50.414;8.050;2023-04-30T08:39:21;0.10;;;0.10;;
25187;SDS011;13141;50.414;8.050;2023-04-30T08:41:48;0.10;;;0.10;;
25187;SDS011;13141;50.414;8.050;2023-04-30T08:44:19;0.10;;;0.10;;
25187;SDS011;13141;50.414;8.050;2023-04-30T08:46:46;0.10;;;0.10;;
25187;SDS011;13141;50.414;8.050;2023-04-30T08:49:14;0.10;;;0.10;;
25187;SDS011;13141;50.414;8.050;2023-04-30T08:51:40;0.10;;;0.10;;
25187;SDS011;13141;50.414;8.050;2023-04-30T08:54:08;0.08;;;0.08;;
25187;SDS011;13141;50.414;8.050;2023-04-30T08:56:36;0.10;;;0.10;;
25187;SDS011;13141;50.414;8.050;2023-04-30T08:59:02;0.10;;;0.10;;
25187;SDS011;13141;50.414;8.050;2023-04-30T09:01:28;0.10;;;0.10;;
25187;SDS011;13141;50.414;8.050;2023-04-30T09:03:54;0.10;;;0.10;;
25187;SDS011;13141;50.414;8.050;2023-04-30T09:06:21;0.10;;;0.10;;
25187;SDS011;13141;50.414;8.050;2023-04-30T09:08:47;0.10;;;0.10;;
25187;SDS011;13141;50.414;8.050;2023-04-30T09:11:20;0.10;;;0.10;;
25187;SDS011;13141;50.414;8.050;2023-04-30T09:13:46;0.20;;;0.20;;
25187;SDS011;13141;50.414;8.050;2023-04-30T09:16:13;0.10;;;0.10;;
25187;SDS011;13141;50.414;8.050;2023-04-30T09:18:39;0.10;;;0.10;;
25187;SDS011;13141;50.414;8.050;2023-04-30T09:21:05;0.10;;;0.10;;
25187;SDS011;13141;50.414;8.050;2023-04-30T09:23:32;0.10;;;0.10;;
25187;SDS011;13141;50.414;8.050;2023-04-30T09:25:58;0.10;;;0.10;;
25187;SDS011;13141;50.414;8.050;2023-04-30T09:28:24;0.10;;;0.10;;
25187;SDS011;13141;50.414;8.050;2023-04-30T09:30:50;0.10;;;0.10;;
25187;SDS011;13141;50.414;8.050;2023-04-30T09:33:16;0.20;;;0.20;;
25187;SDS011;13141;50.414;8.050;2023-04-30T09:35:42;0.10;;;0.10;;
25187;SDS011;13141;50.414;8.050;2023-04-30T09:40:51;0.10;;;0.10;;
25187;SDS011;13141;50.414;8.050;2023-04-30T09:43:16;0.10;;;0.10;;
25187;SDS011;13141;50.414;8.050;2023-04-30T09:45:43;0.10;;;0.10;;
25187;SDS011;13141;50.414;8.050;2023-04-30T09:48:10;0.10;;;0.10;;
25187;SDS011;13141;50.414;8.050;2023-04-30T09:50:38;0.10;;;0.10;;
25187;SDS011;13141;50.414;8.050;2023-04-30T09:53:04;0.10;;;0.10;;
25187;SDS011;13141;50.414;8.050;2023-04-30T09:55:30;0.20;;;0.20;;
25187;SDS011;13141;50.414;8.050;2023-04-30T09:57:58;0.10;;;0.10;;
25187;SDS011;13141;50.414;8.050;2023-04-30T10:00:25;0.10;;;0.10;;
25187;SDS011;13141;50.414;8.050;2023-04-30T10:02:51;0.10;;;0.10;;
25187;SDS011;13141;50.414;8.050;2023-04-30T10:05:17;0.10;;;0.10;;
25187;SDS011;13141;50.414;8.050;2023-04-30T10:07:43;0.10;;;0.10;;
25187;SDS011;13141;50.414;8.050;2023-04-30T10:10:10;0.10;;;0.10;;
25187;SDS011;13141;50.414;8.050;2023-04-30T10:12:38;0.10;;;0.10;;
25187;SDS011;13141;50.414;8.050;2023-04-30T10:15:10;0.15;;;0.15;;
25187;SDS011;13141;50.414;8.050;2023-04-30T10:17:39;0.20;;;0.20;;
25187;SDS011;13141;50.414;8.050;2023-04-30T10:20:08;0.15;;;0.15;;
25187;SDS011;13141;50.414;8.050;2023-04-30T10:22:34;0.15;;;0.15;;
25187;SDS011;13141;50.414;8.050;2023-04-30T10:25:01;0.10;;;0.10;;
25187;SDS011;13141;50.414;8.050;2023-04-30T10:27:27;0.20;;;0.20;;
25187;SDS011;13141;50.414;8.050;2023-04-30T10:29:53;0.15;;;0.15;;
25187;SDS011;13141;50.414;8.050;2023-04-30T10:32:21;0.20;;;0.20;;
25187;SDS011;13141;50.414;8.050;2023-04-30T10:34:50;0.20;;;0.20;;
25187;SDS011;13141;50.414;8.050;2023-04-30T10:37:23;0.10;;;0.10;;
25187;SDS011;13141;50.414;8.050;2023-04-30T10:39:55;0.20;;;0.20;;
25187;SDS011;13141;50.414;8.050;2023-04-30T10:42:22;0.20;;;0.20;;
25187;SDS011;13141;50.414;8.050;2023-04-30T10:44:48;0.17;;;0.17;;
25187;SDS011;13141;50.414;8.050;2023-04-30T10:47:15;0.10;;;0.10;;
25187;SDS011;13141;50.414;8.050;2023-04-30T10:49:45;0.20;;;0.20;;
25187;SDS011;13141;50.414;8.050;2023-04-30T10:52:11;0.10;;;0.10;;
25187;SDS011;13141;50.414;8.050;2023-04-30T10:54:37;0.20;;;0.20;;
25187;SDS011;13141;50.414;8.050;2023-04-30T10:57:10;0.20;;;0.20;;
25187;SDS011;13141;50.414;8.050;2023-04-30T10:59:37;0.22;;;0.22;;
25187;SDS011;13141;50.414;8.050;2023-04-30T11:02:02;0.20;;;0.20;;
25187;SDS011;13141;50.414;8.050;2023-04-30T11:04:28;0.20;;;0.20;;
25187;SDS011;13141;50.414;8.050;2023-04-30T11:07:01;0.10;;;0.10;;
25187;SDS011;13141;50.414;8.050;2023-04-30T11:09:35;0.20;;;0.20;;
25187;SDS011;13141;50.414;8.050;2023-04-30T11:12:03;0.13;;;0.13;;
25187;SDS011;13141;50.414;8.050;2023-04-30T11:14:34;0.10;;;0.10;;
25187;SDS011;13141;50.414;8.050;2023-04-30T11:17:03;0.10;;;0.10;;
25187;SDS011;13141;50.414;8.050;2023-04-30T11:19:29;0.13;;;0.13;;
25187;SDS011;13141;50.414;8.050;2023-04-30T11:22:15;0.20;;;0.20;;
25187;SDS011;13141;50.414;8.050;2023-04-30T11:24:48;0.10;;;0.10;;
25187;SDS011;13141;50.414;8.050;2023-04-30T11:27:18;0.20;;;0.20;;
25187;SDS011;13141;50.414;8.050;2023-04-30T11:29:44;0.10;;;0.10;;
25187;SDS011;13141;50.414;8.050;2023-04-30T11:32:11;0.20;;;0.20;;
25187;SDS011;13141;50.414;8.050;2023-04-30T11:34:37;0.20;;;0.20;;
25187;SDS011;13141;50.414;8.050;2023-04-30T11:37:04;0.10;;;0.10;;
25187;SDS011;13141;50.414;8.050;2023-04-30T11:39:32;0.20;;;0.20;;
25187;SDS011;13141;50.414;8.050;2023-04-30T11:42:00;0.22;;;0.22;;
25187;SDS011;13141;50.414;8.050;2023-04-30T11:44:26;0.10;;;0.10;;
25187;SDS011;13141;50.414;8.050;2023-04-30T11:46:52;0.10;;;0.10;;
25187;SDS011;13141;50.414;8.050;2023-04-30T11:49:19;0.20;;;0.20;;
25187;SDS011;13141;50.414;8.050;2023-04-30T11:51:47;0.10;;;0.10;;
25187;SDS011;13141;50.414;8.050;2023-04-30T11:54:13;0.20;;;0.20;;
25187;SDS011;13141;50.414;8.050;2023-04-30T11:56:44;0.20;;;0.20;;
25187;SDS011;13141;50.414;8.050;2023-04-30T11:59:10;0.20;;;0.20;;
25187;SDS011;13141;50.414;8.050;2023-04-30T12:01:36;0.10;;;0.10;;
25187;SDS011;13141;50.414;8.050;2023-04-30T12:04:02;0.10;;;0.10;;
25187;SDS011;13141;50.414;8.050;2023-04-30T12:06:29;0.20;;;0.20;;
25187;SDS011;13141;50.414;8.050;2023-04-30T12:08:55;0.20;;;0.20;;
25187;SDS011;13141;50.414;8.050;2023-04-30T12:11:22;0.20;;;0.20;;
25187;SDS011;13141;50.414;8.050;2023-04-30T12:13:50;0.20;;;0.20;;
25187;SDS011;13141;50.414;8.050;2023-04-30T12:16:17;0.20;;;0.20;;
25187;SDS011;13141;50.414;8.050;2023-04-30T12:18:42;0.30;;;0.30;;
25187;SDS011;13141;50.414;8.050;2023-04-30T12:21:08;0.20;;;0.20;;
25187;SDS011;13141;50.414;8.050;2023-04-30T12:23:34;0.20;;;0.20;;
25187;SDS011;13141;50.414;8.050;2023-04-30T12:26:00;0.20;;;0.20;;
25187;SDS011;13141;50.414;8.050;2023-04-30T12:28:26;0.30;;;0.30;;
25187;SDS011;13141;50.414;8.050;2023-04-30T12:30:54;0.22;;;0.22;;
25187;SDS011;13141;50.414;8.050;2023-04-30T12:33:20;0.30;;;0.30;;
25187;SDS011;13141;50.414;8.050;2023-04-30T12:35:45;0.10;;;0.10;;
25187;SDS011;13141;50.414;8.050;2023-04-30T12:38:12;0.10;;;0.10;;
25187;SDS011;13141;50.414;8.050;2023-04-30T12:40:45;0.17;;;0.17;;
25187;SDS011;13141;50.414;8.050;2023-04-30T12:43:13;0.20;;;0.20;;
25187;SDS011;13141;50.414;8.050;2023-04-30T12:45:43;0.20;;;0.20;;
25187;SDS011;13141;50.414;8.050;2023-04-30T12:48:12;0.22;;;0.22;;
25187;SDS011;13141;50.414;8.050;2023-04-30T12:50:39;0.22;;;0.22;;
25187;SDS011;13141;50.414;8.050;2023-04-30T12:53:05;0.20;;;0.20;;
25187;SDS011;13141;50.414;8.050;2023-04-30T12:55:32;0.20;;;0.20;;
25187;SDS011;13141;50.414;8.050;2023-04-30T12:58:01;0.20;;;0.20;;
25187;SDS011;13141;50.414;8.050;2023-04-30T13:00:28;0.10;;;0.10;;
25187;SDS011;13141;50.414;8.050;2023-04-30T13:02:53;0.20;;;0.20;;
25187;SDS011;13141;50.414;8.050;2023-04-30T13:05:20;0.20;;;0.20;;
25187;SDS011;13141;50.414;8.050;2023-04-30T13:07:46;0.20;;;0.20;;
25187;SDS011;13141;50.414;8.050;2023-04-30T13:10:12;0.20;;;0.20;;
25187;SDS011;13141;50.414;8.050;2023-04-30T13:12:38;0.17;;;0.17;;
25187;SDS011;13141;50.414;8.050;2023-04-30T13:15:04;0.20;;;0.20;;
25187;SDS011;13141;50.414;8.050;2023-04-30T13:17:30;0.20;;;0.20;;
25187;SDS011;13141;50.414;8.050;2023-04-30T13:20:11;0.20;;;0.20;;
25187;SDS011;13141;50.414;8.050;2023-04-30T13:22:40;0.20;;;0.20;;
25187;SDS011;13141;50.414;8.050;2023-04-30T14:16:16;0.32;;;0.32;;
25187;SDS011;13141;50.414;8.050;2023-04-30T14:21:11;0.30;;;0.30;;
25187;SDS011;13141;50.414;8.050;2023-04-30T14:23:37;0.37;;;0.37;;
25187;SDS011;13141;50.414;8.050;2023-04-30T14:26:03;0.30;;;0.30;;
25187;SDS011;13141;50.414;8.050;2023-04-30T14:28:29;0.30;;;0.30;;
25187;SDS011;13141;50.414;8.050;2023-04-30T14:30:54;0.30;;;0.30;;
25187;SDS011;13141;50.414;8.050;2023-04-30T14:33:20;0.20;;;0.20;;
25187;SDS011;13141;50.414;8.050;2023-04-30T14:35:46;0.30;;;0.30;;
25187;SDS011;13141;50.414;8.050;2023-04-30T14:38:13;0.28;;;0.28;;
25187;SDS011;13141;50.414;8.050;2023-04-30T14:40:38;0.30;;;0.30;;
25187;SDS011;13141;50.414;8.050;2023-04-30T14:43:04;0.20;;;0.20;;
25187;SDS011;13141;50.414;8.050;2023-04-30T14:45:31;0.20;;;0.20;;
25187;SDS011;13141;50.414;8.050;2023-04-30T14:47:57;0.30;;;0.30;;
25187;SDS011;13141;50.414;8.050;2023-04-30T14:50:23;0.30;;;0.30;;
25187;SDS011;13141;50.414;8.050;2023-04-30T14:52:49;0.30;;;0.30;;
25187;SDS011;13141;50.414;8.050;2023-04-30T14:55:16;0.30;;;0.30;;
25187;SDS011;13141;50.414;8.050;2023-04-30T14:57:43;0.20;;;0.20;;
25187;SDS011;13141;50.414;8.050;2023-04-30T15:00:09;0.28;;;0.28;;
25187;SDS011;13141;50.414;8.050;2023-04-30T15:02:36;0.20;;;0.20;;
25187;SDS011;13141;50.414;8.050;2023-04-30T15:05:02;0.20;;;0.20;;
25187;SDS011;13141;50.414;8.050;2023-04-30T15:07:29;0.20;;;0.20;;
25187;SDS011;13141;50.414;8.050;2023-04-30T15:09:55;0.20;;;0.20;;
25187;SDS011;13141;50.414;8.050;2023-04-30T15:12:22;0.30;;;0.30;;
25187;SDS011;13141;50.414;8.050;2023-04-30T15:14:48;0.20;;;0.20;;
25187;SDS011;13141;50.414;8.050;2023-04-30T15:17:14;0.20;;;0.20;;
25187;SDS011;13141;50.414;8.050;2023-04-30T15:19:40;0.20;;;0.20;;
25187;SDS011;13141;50.414;8.050;2023-04-30T15:22:06;0.20;;;0.20;;
25187;SDS011;13141;50.414;8.050;2023-04-30T15:24:33;0.20;;;0.20;;
25187;SDS011;13141;50.414;8.050;2023-04-30T15:26:59;0.28;;;0.28;;
25187;SDS011;13141;50.414;8.050;2023-04-30T15:29:28;0.20;;;0.20;;
25187;SDS011;13141;50.414;8.050;2023-04-30T15:31:54;0.20;;;0.20;;
25187;SDS011;13141;50.414;8.050;2023-04-30T15:34:20;0.20;;;0.20;;
25187;SDS011;13141;50.414;8.050;2023-04-30T15:36:47;0.28;;;0.28;;
25187;SDS011;13141;50.414;8.050;2023-04-30T15:39:13;0.20;;;0.20;;
25187;SDS011;13141;50.414;8.050;2023-04-30T15:41:39;0.25;;;0.25;;